sensor_id;sensor_type;location;lat;lon;timestamp;P1;durP1;ratioP1;P2;durP2;ratioP2
43160;SDS011;40968;52.342;5.528;2022-07-29T00:00:28;8.27;;;1.70;;
43160;SDS011;40968;52.342;5.528;2022-07-29T00:02:54;11.10;;;1.52;;
43160;SDS011;40968;52.342;5.528;2022-07-29T00:05:21;8.13;;;1.75;;
43160;SDS011;40968;52.342;5.528;2022-07-29T00:07:49;4.22;;;1.50;;
43160;SDS011;40968;52.342;5.528;2022-07-29T00:10:15;6.97;;;1.85;;
43160;SDS011;40968;52.342;5.528;2022-07-29T00:12:42;5.28;;;2.10;;
43160;SDS011;40968;52.342;5.528;2022-07-29T00:15:09;6.55;;;2.00;;
43160;SDS011;40968;52.342;5.528;2022-07-29T00:17:35;4.63;;;1.98;;
43160;SDS011;40968;52.342;5.528;2022-07-29T00:20:02;11.43;;;2.10;;
43160;SDS011;40968;52.342;5.528;2022-07-29T00:22:30;6.88;;;2.08;;
43160;SDS011;40968;52.342;5.528;2022-07-29T00:24:58;6.78;;;1.52;;
43160;SDS011;40968;52.342;5.528;2022-07-29T00:27:24;3.40;;;1.45;;
43160;SDS011;40968;52.342;5.528;2022-07-29T00:29:51;5.63;;;1.65;;
43160;SDS011;40968;52.342;5.528;2022-07-29T00:32:17;4.85;;;2.13;;
43160;SDS011;40968;52.342;5.528;2022-07-29T00:34:44;5.47;;;1.50;;
43160;SDS011;40968;52.342;5.528;2022-07-29T00:37:37;7.30;;;1.95;;
43160;SDS011;40968;52.342;5.528;2022-07-29T00:40:05;5.57;;;2.03;;
43160;SDS011;40968;52.342;5.528;2022-07-29T00:42:40;6.60;;;1.55;;
43160;SDS011;40968;52.342;5.528;2022-07-29T00:45:08;2.55;;;1.58;;
43160;SDS011;40968;52.342;5.528;2022-07-29T00:47:35;8.93;;;2.10;;
43160;SDS011;40968;52.342;5.528;2022-07-29T00:50:03;2.70;;;1.52;;
43160;SDS011;40968;52.342;5.528;2022-07-29T00:52:31;5.68;;;1.75;;
43160;SDS011;40968;52.342;5.528;2022-07-29T00:54:58;6.82;;;1.90;;
43160;SDS011;40968;52.342;5.528;2022-07-29T00:57:26;6.32;;;2.03;;
43160;SDS011;40968;52.342;5.528;2022-07-29T00:59:53;10.13;;;1.92;;
43160;SDS011;40968;52.342;5.528;2022-07-29T01:02:19;5.38;;;2.03;;
43160;SDS011;40968;52.342;5.528;2022-07-29T01:04:46;6.43;;;1.90;;
43160;SDS011;40968;52.342;5.528;2022-07-29T01:07:13;6.88;;;2.22;;
43160;SDS011;40968;52.342;5.528;2022-07-29T01:09:40;7.43;;;2.10;;
43160;SDS011;40968;52.342;5.528;2022-07-29T01:12:08;3.63;;;1.90;;
43160;SDS011;40968;52.342;5.528;2022-07-29T01:14:36;3.70;;;1.70;;
43160;SDS011;40968;52.342;5.528;2022-07-29T01:17:05;5.97;;;2.10;;
43160;SDS011;40968;52.342;5.528;2022-07-29T01:19:44;5.88;;;2.00;;
43160;SDS011;40968;52.342;5.528;2022-07-29T01:22:21;12.77;;;2.20;;
43160;SDS011;40968;52.342;5.528;2022-07-29T01:25:02;7.13;;;1.88;;
43160;SDS011;40968;52.342;5.528;2022-07-29T01:27:41;4.88;;;2.10;;
43160;SDS011;40968;52.342;5.528;2022-07-29T01:30:18;3.88;;;2.00;;
43160;SDS011;40968;52.342;5.528;2022-07-29T01:32:48;6.28;;;2.05;;
43160;SDS011;40968;52.342;5.528;2022-07-29T01:35:21;6.75;;;2.10;;
43160;SDS011;40968;52.342;5.528;2022-07-29T01:37:52;8.48;;;2.10;;
43160;SDS011;40968;52.342;5.528;2022-07-29T01:40:24;8.98;;;2.13;;
43160;SDS011;40968;52.342;5.528;2022-07-29T01:42:54;3.50;;;1.75;;
43160;SDS011;40968;52.342;5.528;2022-07-29T01:45:26;7.18;;;2.08;;
43160;SDS011;40968;52.342;5.528;2022-07-29T01:47:59;9.00;;;2.10;;
43160;SDS011;40968;52.342;5.528;2022-07-29T01:50:30;10.50;;;1.90;;
43160;SDS011;40968;52.342;5.528;2022-07-29T01:53:11;6.03;;;2.05;;
43160;SDS011;40968;52.342;5.528;2022-07-29T01:55:41;6.07;;;1.88;;
43160;SDS011;40968;52.342;5.528;2022-07-29T01:58:11;9.90;;;2.00;;
43160;SDS011;40968;52.342;5.528;2022-07-29T02:00:41;8.27;;;1.85;;
43160;SDS011;40968;52.342;5.528;2022-07-29T02:05:39;3.30;;;1.65;;
43160;SDS011;40968;52.342;5.528;2022-07-29T02:08:08;5.03;;;2.15;;
43160;SDS011;40968;52.342;5.528;2022-07-29T02:10:37;6.13;;;2.20;;
43160;SDS011;40968;52.342;5.528;2022-07-29T02:13:06;7.05;;;2.38;;
43160;SDS011;40968;52.342;5.528;2022-07-29T02:15:35;5.60;;;2.22;;
43160;SDS011;40968;52.342;5.528;2022-07-29T02:18:05;5.45;;;2.17;;
43160;SDS011;40968;52.342;5.528;2022-07-29T02:20:34;12.25;;;2.45;;
43160;SDS011;40968;52.342;5.528;2022-07-29T02:23:04;6.57;;;2.60;;
43160;SDS011;40968;52.342;5.528;2022-07-29T02:25:31;5.88;;;2.10;;
43160;SDS011;40968;52.342;5.528;2022-07-29T02:27:58;7.68;;;2.20;;
43160;SDS011;40968;52.342;5.528;2022-07-29T02:30:26;4.35;;;1.80;;
43160;SDS011;40968;52.342;5.528;2022-07-29T02:32:55;3.70;;;2.00;;
43160;SDS011;40968;52.342;5.528;2022-07-29T02:35:24;4.95;;;2.08;;
43160;SDS011;40968;52.342;5.528;2022-07-29T02:37:51;9.63;;;2.03;;
43160;SDS011;40968;52.342;5.528;2022-07-29T02:40:34;6.70;;;2.17;;
43160;SDS011;40968;52.342;5.528;2022-07-29T02:43:04;7.47;;;2.10;;
43160;SDS011;40968;52.342;5.528;2022-07-29T02:45:32;5.43;;;2.08;;
43160;SDS011;40968;52.342;5.528;2022-07-29T02:48:00;8.05;;;2.38;;
43160;SDS011;40968;52.342;5.528;2022-07-29T02:50:34;9.18;;;2.28;;
43160;SDS011;40968;52.342;5.528;2022-07-29T02:53:05;5.03;;;1.80;;
43160;SDS011;40968;52.342;5.528;2022-07-29T02:55:37;6.43;;;2.03;;
43160;SDS011;40968;52.342;5.528;2022-07-29T03:00:39;5.00;;;2.15;;
43160;SDS011;40968;52.342;5.528;2022-07-29T03:03:08;2.45;;;1.73;;
43160;SDS011;40968;52.342;5.528;2022-07-29T03:05:40;3.08;;;2.10;;
43160;SDS011;40968;52.342;5.528;2022-07-29T03:08:08;5.90;;;1.85;;
43160;SDS011;40968;52.342;5.528;2022-07-29T03:10:36;7.30;;;2.17;;
43160;SDS011;40968;52.342;5.528;2022-07-29T03:13:05;8.10;;;2.45;;
43160;SDS011;40968;52.342;5.528;2022-07-29T03:15:33;4.35;;;2.10;;
43160;SDS011;40968;52.342;5.528;2022-07-29T03:18:00;9.02;;;2.15;;
43160;SDS011;40968;52.342;5.528;2022-07-29T03:20:28;7.13;;;2.33;;
43160;SDS011;40968;52.342;5.528;2022-07-29T03:22:56;7.45;;;2.38;;
43160;SDS011;40968;52.342;5.528;2022-07-29T03:25:22;8.27;;;2.38;;
43160;SDS011;40968;52.342;5.528;2022-07-29T03:27:49;10.45;;;2.30;;
43160;SDS011;40968;52.342;5.528;2022-07-29T03:30:16;4.60;;;1.92;;
43160;SDS011;40968;52.342;5.528;2022-07-29T03:32:43;4.20;;;2.45;;
43160;SDS011;40968;52.342;5.528;2022-07-29T03:35:09;4.32;;;2.13;;
43160;SDS011;40968;52.342;5.528;2022-07-29T03:37:36;4.68;;;2.10;;
43160;SDS011;40968;52.342;5.528;2022-07-29T03:40:04;9.10;;;2.10;;
43160;SDS011;40968;52.342;5.528;2022-07-29T03:42:33;6.63;;;2.30;;
43160;SDS011;40968;52.342;5.528;2022-07-29T03:45:05;6.30;;;1.95;;
43160;SDS011;40968;52.342;5.528;2022-07-29T03:50:05;4.10;;;2.00;;
43160;SDS011;40968;52.342;5.528;2022-07-29T03:52:33;7.00;;;2.40;;
43160;SDS011;40968;52.342;5.528;2022-07-29T03:55:01;11.07;;;2.60;;
43160;SDS011;40968;52.342;5.528;2022-07-29T03:57:30;3.63;;;2.00;;
43160;SDS011;40968;52.342;5.528;2022-07-29T03:59:58;8.35;;;2.40;;
43160;SDS011;40968;52.342;5.528;2022-07-29T04:02:26;5.50;;;2.30;;
43160;SDS011;40968;52.342;5.528;2022-07-29T04:04:53;4.93;;;2.15;;
43160;SDS011;40968;52.342;5.528;2022-07-29T04:07:20;6.00;;;2.70;;
43160;SDS011;40968;52.342;5.528;2022-07-29T04:09:46;5.80;;;2.55;;
43160;SDS011;40968;52.342;5.528;2022-07-29T04:12:13;4.30;;;2.33;;
43160;SDS011;40968;52.342;5.528;2022-07-29T04:14:41;5.75;;;2.60;;
43160;SDS011;40968;52.342;5.528;2022-07-29T04:17:08;5.15;;;2.17;;
43160;SDS011;40968;52.342;5.528;2022-07-29T04:19:35;9.25;;;2.60;;
43160;SDS011;40968;52.342;5.528;2022-07-29T04:22:01;7.03;;;2.80;;
43160;SDS011;40968;52.342;5.528;2022-07-29T04:24:28;5.57;;;2.88;;
43160;SDS011;40968;52.342;5.528;2022-07-29T04:26:55;7.22;;;2.40;;
43160;SDS011;40968;52.342;5.528;2022-07-29T04:29:21;4.68;;;2.50;;
43160;SDS011;40968;52.342;5.528;2022-07-29T04:31:49;5.57;;;2.72;;
43160;SDS011;40968;52.342;5.528;2022-07-29T04:34:16;8.60;;;2.40;;
43160;SDS011;40968;52.342;5.528;2022-07-29T04:36:42;5.07;;;2.47;;
43160;SDS011;40968;52.342;5.528;2022-07-29T04:39:09;11.30;;;2.55;;
43160;SDS011;40968;52.342;5.528;2022-07-29T04:41:36;10.27;;;2.58;;
43160;SDS011;40968;52.342;5.528;2022-07-29T04:44:02;6.38;;;2.47;;
43160;SDS011;40968;52.342;5.528;2022-07-29T04:46:30;13.02;;;3.05;;
43160;SDS011;40968;52.342;5.528;2022-07-29T04:48:58;8.18;;;3.03;;
43160;SDS011;40968;52.342;5.528;2022-07-29T04:51:25;7.40;;;2.70;;
43160;SDS011;40968;52.342;5.528;2022-07-29T04:53:51;6.30;;;2.30;;
43160;SDS011;40968;52.342;5.528;2022-07-29T04:56:18;10.18;;;2.70;;
43160;SDS011;40968;52.342;5.528;2022-07-29T04:58:44;9.70;;;2.90;;
43160;SDS011;40968;52.342;5.528;2022-07-29T05:01:11;8.07;;;2.10;;
43160;SDS011;40968;52.342;5.528;2022-07-29T05:03:39;6.45;;;2.53;;
43160;SDS011;40968;52.342;5.528;2022-07-29T05:06:07;4.95;;;2.30;;
43160;SDS011;40968;52.342;5.528;2022-07-29T05:08:33;8.40;;;2.30;;
43160;SDS011;40968;52.342;5.528;2022-07-29T05:11:00;5.82;;;2.50;;
43160;SDS011;40968;52.342;5.528;2022-07-29T05:13:27;5.68;;;2.10;;
43160;SDS011;40968;52.342;5.528;2022-07-29T05:15:53;5.38;;;2.50;;
43160;SDS011;40968;52.342;5.528;2022-07-29T05:18:20;8.25;;;2.78;;
43160;SDS011;40968;52.342;5.528;2022-07-29T05:20:46;5.97;;;2.33;;
43160;SDS011;40968;52.342;5.528;2022-07-29T05:23:14;5.60;;;2.50;;
43160;SDS011;40968;52.342;5.528;2022-07-29T05:25:41;8.68;;;1.98;;
43160;SDS011;40968;52.342;5.528;2022-07-29T05:28:07;5.75;;;2.30;;
43160;SDS011;40968;52.342;5.528;2022-07-29T05:30:34;8.10;;;2.47;;
43160;SDS011;40968;52.342;5.528;2022-07-29T05:33:01;5.13;;;2.25;;
43160;SDS011;40968;52.342;5.528;2022-07-29T05:35:27;5.72;;;2.22;;
43160;SDS011;40968;52.342;5.528;2022-07-29T05:37:54;6.43;;;2.30;;
43160;SDS011;40968;52.342;5.528;2022-07-29T05:40:22;9.68;;;2.28;;
43160;SDS011;40968;52.342;5.528;2022-07-29T05:42:49;5.93;;;2.47;;
43160;SDS011;40968;52.342;5.528;2022-07-29T05:45:15;7.72;;;2.53;;
43160;SDS011;40968;52.342;5.528;2022-07-29T05:47:42;5.43;;;2.28;;
43160;SDS011;40968;52.342;5.528;2022-07-29T05:50:08;12.05;;;2.67;;
43160;SDS011;40968;52.342;5.528;2022-07-29T05:52:35;10.25;;;2.72;;
43160;SDS011;40968;52.342;5.528;2022-07-29T05:55:02;7.22;;;2.40;;
43160;SDS011;40968;52.342;5.528;2022-07-29T05:57:30;7.05;;;2.33;;
43160;SDS011;40968;52.342;5.528;2022-07-29T05:59:57;5.80;;;2.40;;
43160;SDS011;40968;52.342;5.528;2022-07-29T06:02:24;9.48;;;2.72;;
43160;SDS011;40968;52.342;5.528;2022-07-29T06:04:51;11.88;;;2.58;;
43160;SDS011;40968;52.342;5.528;2022-07-29T06:07:17;8.00;;;2.75;;
43160;SDS011;40968;52.342;5.528;2022-07-29T06:09:44;7.22;;;2.25;;
43160;SDS011;40968;52.342;5.528;2022-07-29T06:12:10;6.28;;;3.00;;
43160;SDS011;40968;52.342;5.528;2022-07-29T06:14:38;13.23;;;2.90;;
43160;SDS011;40968;52.342;5.528;2022-07-29T06:17:05;6.05;;;2.38;;
43160;SDS011;40968;52.342;5.528;2022-07-29T06:19:33;8.80;;;2.30;;
43160;SDS011;40968;52.342;5.528;2022-07-29T06:22:01;8.13;;;2.65;;
43160;SDS011;40968;52.342;5.528;2022-07-29T06:24:28;7.30;;;2.28;;
43160;SDS011;40968;52.342;5.528;2022-07-29T06:26:54;12.77;;;2.95;;
43160;SDS011;40968;52.342;5.528;2022-07-29T06:29:21;9.23;;;2.28;;
43160;SDS011;40968;52.342;5.528;2022-07-29T06:31:49;8.32;;;2.67;;
43160;SDS011;40968;52.342;5.528;2022-07-29T06:34:15;6.53;;;2.15;;
43160;SDS011;40968;52.342;5.528;2022-07-29T06:36:42;6.63;;;2.08;;
43160;SDS011;40968;52.342;5.528;2022-07-29T06:39:08;3.67;;;1.95;;
43160;SDS011;40968;52.342;5.528;2022-07-29T06:41:35;6.35;;;2.45;;
43160;SDS011;40968;52.342;5.528;2022-07-29T06:44:02;7.78;;;2.10;;
43160;SDS011;40968;52.342;5.528;2022-07-29T06:46:29;6.03;;;2.20;;
43160;SDS011;40968;52.342;5.528;2022-07-29T06:48:57;7.85;;;2.58;;
43160;SDS011;40968;52.342;5.528;2022-07-29T06:51:26;9.23;;;2.60;;
43160;SDS011;40968;52.342;5.528;2022-07-29T06:53:52;6.13;;;2.08;;
43160;SDS011;40968;52.342;5.528;2022-07-29T06:56:19;5.72;;;2.35;;
43160;SDS011;40968;52.342;5.528;2022-07-29T06:58:46;8.10;;;2.60;;
43160;SDS011;40968;52.342;5.528;2022-07-29T07:01:12;9.43;;;2.72;;
43160;SDS011;40968;52.342;5.528;2022-07-29T07:03:39;8.75;;;3.00;;
43160;SDS011;40968;52.342;5.528;2022-07-29T07:06:08;6.68;;;2.83;;
43160;SDS011;40968;52.342;5.528;2022-07-29T07:08:34;5.93;;;2.75;;
43160;SDS011;40968;52.342;5.528;2022-07-29T07:11:01;6.53;;;2.58;;
43160;SDS011;40968;52.342;5.528;2022-07-29T07:13:28;7.80;;;2.85;;
43160;SDS011;40968;52.342;5.528;2022-07-29T07:15:59;11.30;;;2.78;;
43160;SDS011;40968;52.342;5.528;2022-07-29T07:18:25;7.93;;;2.90;;
43160;SDS011;40968;52.342;5.528;2022-07-29T07:20:52;8.20;;;2.90;;
43160;SDS011;40968;52.342;5.528;2022-07-29T07:23:20;9.88;;;2.80;;
43160;SDS011;40968;52.342;5.528;2022-07-29T07:25:47;8.10;;;2.70;;
43160;SDS011;40968;52.342;5.528;2022-07-29T07:28:13;10.23;;;2.95;;
43160;SDS011;40968;52.342;5.528;2022-07-29T07:30:40;11.43;;;3.35;;
43160;SDS011;40968;52.342;5.528;2022-07-29T07:33:06;15.82;;;3.17;;
43160;SDS011;40968;52.342;5.528;2022-07-29T07:35:33;9.98;;;3.13;;
43160;SDS011;40968;52.342;5.528;2022-07-29T07:38:00;10.75;;;3.17;;
43160;SDS011;40968;52.342;5.528;2022-07-29T07:40:28;7.75;;;3.53;;
43160;SDS011;40968;52.342;5.528;2022-07-29T07:42:54;8.52;;;3.25;;
43160;SDS011;40968;52.342;5.528;2022-07-29T07:45:21;9.05;;;3.22;;
43160;SDS011;40968;52.342;5.528;2022-07-29T07:47:48;10.23;;;2.83;;
43160;SDS011;40968;52.342;5.528;2022-07-29T07:50:14;7.65;;;3.08;;
43160;SDS011;40968;52.342;5.528;2022-07-29T07:52:46;11.45;;;3.78;;
43160;SDS011;40968;52.342;5.528;2022-07-29T07:55:14;12.15;;;3.50;;
43160;SDS011;40968;52.342;5.528;2022-07-29T07:57:43;10.25;;;3.45;;
43160;SDS011;40968;52.342;5.528;2022-07-29T08:00:10;10.07;;;3.45;;
43160;SDS011;40968;52.342;5.528;2022-07-29T08:02:38;7.07;;;3.25;;
43160;SDS011;40968;52.342;5.528;2022-07-29T08:05:05;8.00;;;2.90;;
43160;SDS011;40968;52.342;5.528;2022-07-29T08:07:32;8.45;;;3.00;;
43160;SDS011;40968;52.342;5.528;2022-07-29T08:09:59;9.82;;;3.72;;
43160;SDS011;40968;52.342;5.528;2022-07-29T08:12:25;6.30;;;3.20;;
43160;SDS011;40968;52.342;5.528;2022-07-29T08:14:53;6.80;;;3.05;;
43160;SDS011;40968;52.342;5.528;2022-07-29T08:17:20;8.80;;;3.20;;
43160;SDS011;40968;52.342;5.528;2022-07-29T08:19:46;7.95;;;3.65;;
43160;SDS011;40968;52.342;5.528;2022-07-29T08:22:14;17.63;;;3.60;;
43160;SDS011;40968;52.342;5.528;2022-07-29T08:24:41;8.90;;;3.33;;
43160;SDS011;40968;52.342;5.528;2022-07-29T08:27:17;12.57;;;3.70;;
43160;SDS011;40968;52.342;5.528;2022-07-29T08:29:44;8.43;;;3.08;;
43160;SDS011;40968;52.342;5.528;2022-07-29T08:32:12;14.45;;;3.78;;
43160;SDS011;40968;52.342;5.528;2022-07-29T08:34:39;11.45;;;3.78;;
43160;SDS011;40968;52.342;5.528;2022-07-29T08:37:06;9.30;;;3.72;;
43160;SDS011;40968;52.342;5.528;2022-07-29T08:39:32;7.10;;;3.42;;
43160;SDS011;40968;52.342;5.528;2022-07-29T08:41:59;7.63;;;3.50;;
43160;SDS011;40968;52.342;5.528;2022-07-29T08:44:25;7.10;;;3.38;;
43160;SDS011;40968;52.342;5.528;2022-07-29T08:46:52;12.48;;;3.35;;
43160;SDS011;40968;52.342;5.528;2022-07-29T08:49:20;9.95;;;3.15;;
43160;SDS011;40968;52.342;5.528;2022-07-29T08:51:46;11.65;;;3.67;;
43160;SDS011;40968;52.342;5.528;2022-07-29T08:54:16;10.80;;;3.55;;
43160;SDS011;40968;52.342;5.528;2022-07-29T08:56:43;11.40;;;3.70;;
43160;SDS011;40968;52.342;5.528;2022-07-29T08:59:14;19.08;;;3.13;;
43160;SDS011;40968;52.342;5.528;2022-07-29T09:01:41;15.07;;;3.80;;
43160;SDS011;40968;52.342;5.528;2022-07-29T09:04:11;10.23;;;3.53;;
43160;SDS011;40968;52.342;5.528;2022-07-29T09:06:42;9.15;;;3.40;;
43160;SDS011;40968;52.342;5.528;2022-07-29T09:09:10;8.40;;;2.88;;
43160;SDS011;40968;52.342;5.528;2022-07-29T09:11:38;10.00;;;3.20;;
43160;SDS011;40968;52.342;5.528;2022-07-29T09:14:05;8.02;;;3.45;;
43160;SDS011;40968;52.342;5.528;2022-07-29T09:16:49;10.93;;;3.33;;
43160;SDS011;40968;52.342;5.528;2022-07-29T09:19:21;11.18;;;3.63;;
43160;SDS011;40968;52.342;5.528;2022-07-29T09:21:50;8.85;;;3.08;;
43160;SDS011;40968;52.342;5.528;2022-07-29T09:27:10;8.60;;;3.42;;
43160;SDS011;40968;52.342;5.528;2022-07-29T09:29:45;8.77;;;3.33;;
43160;SDS011;40968;52.342;5.528;2022-07-29T09:32:11;9.70;;;3.67;;
43160;SDS011;40968;52.342;5.528;2022-07-29T09:34:38;11.43;;;3.47;;
43160;SDS011;40968;52.342;5.528;2022-07-29T09:37:06;10.60;;;3.40;;
43160;SDS011;40968;52.342;5.528;2022-07-29T09:39:34;9.60;;;3.45;;
43160;SDS011;40968;52.342;5.528;2022-07-29T09:42:05;10.27;;;3.35;;
43160;SDS011;40968;52.342;5.528;2022-07-29T09:44:43;7.60;;;3.88;;
43160;SDS011;40968;52.342;5.528;2022-07-29T09:47:10;12.65;;;3.40;;
43160;SDS011;40968;52.342;5.528;2022-07-29T09:49:49;11.88;;;3.25;;
43160;SDS011;40968;52.342;5.528;2022-07-29T09:52:18;13.65;;;4.22;;
43160;SDS011;40968;52.342;5.528;2022-07-29T09:54:45;10.48;;;3.25;;
43160;SDS011;40968;52.342;5.528;2022-07-29T09:57:22;10.20;;;2.83;;
43160;SDS011;40968;52.342;5.528;2022-07-29T09:59:55;15.85;;;3.40;;
43160;SDS011;40968;52.342;5.528;2022-07-29T10:02:22;8.18;;;3.10;;
43160;SDS011;40968;52.342;5.528;2022-07-29T10:04:54;9.13;;;2.78;;
43160;SDS011;40968;52.342;5.528;2022-07-29T10:07:22;10.23;;;3.33;;
43160;SDS011;40968;52.342;5.528;2022-07-29T10:09:52;8.00;;;3.17;;
43160;SDS011;40968;52.342;5.528;2022-07-29T10:12:20;8.40;;;3.47;;
43160;SDS011;40968;52.342;5.528;2022-07-29T10:14:47;10.85;;;3.05;;
43160;SDS011;40968;52.342;5.528;2022-07-29T10:17:14;8.70;;;3.35;;
43160;SDS011;40968;52.342;5.528;2022-07-29T10:19:42;10.48;;;4.05;;
43160;SDS011;40968;52.342;5.528;2022-07-29T10:22:09;11.13;;;4.40;;
43160;SDS011;40968;52.342;5.528;2022-07-29T10:24:38;11.63;;;3.80;;
43160;SDS011;40968;52.342;5.528;2022-07-29T10:27:05;9.60;;;4.05;;
43160;SDS011;40968;52.342;5.528;2022-07-29T10:29:33;11.48;;;4.07;;
43160;SDS011;40968;52.342;5.528;2022-07-29T10:32:06;8.35;;;4.15;;
43160;SDS011;40968;52.342;5.528;2022-07-29T10:34:49;10.02;;;3.72;;
43160;SDS011;40968;52.342;5.528;2022-07-29T10:37:25;7.72;;;3.20;;
43160;SDS011;40968;52.342;5.528;2022-07-29T10:40:02;7.43;;;3.10;;
43160;SDS011;40968;52.342;5.528;2022-07-29T10:42:58;8.90;;;3.13;;
43160;SDS011;40968;52.342;5.528;2022-07-29T10:45:40;10.52;;;3.40;;
43160;SDS011;40968;52.342;5.528;2022-07-29T10:48:07;9.05;;;3.72;;
43160;SDS011;40968;52.342;5.528;2022-07-29T10:53:20;10.63;;;3.80;;
43160;SDS011;40968;52.342;5.528;2022-07-29T10:55:48;7.95;;;3.30;;
43160;SDS011;40968;52.342;5.528;2022-07-29T10:58:16;9.65;;;3.55;;
43160;SDS011;40968;52.342;5.528;2022-07-29T11:00:43;12.95;;;3.45;;
43160;SDS011;40968;52.342;5.528;2022-07-29T11:03:24;11.85;;;3.67;;
43160;SDS011;40968;52.342;5.528;2022-07-29T11:06:09;9.45;;;3.25;;
43160;SDS011;40968;52.342;5.528;2022-07-29T11:08:35;15.43;;;4.50;;
43160;SDS011;40968;52.342;5.528;2022-07-29T11:14:05;12.82;;;3.70;;
43160;SDS011;40968;52.342;5.528;2022-07-29T11:19:31;8.73;;;3.75;;
43160;SDS011;40968;52.342;5.528;2022-07-29T11:21:58;9.98;;;3.55;;
43160;SDS011;40968;52.342;5.528;2022-07-29T11:24:25;11.18;;;3.65;;
43160;SDS011;40968;52.342;5.528;2022-07-29T11:27:08;9.85;;;3.03;;
43160;SDS011;40968;52.342;5.528;2022-07-29T11:29:38;10.75;;;3.78;;
43160;SDS011;40968;52.342;5.528;2022-07-29T11:32:09;10.15;;;3.50;;
43160;SDS011;40968;52.342;5.528;2022-07-29T11:34:38;16.42;;;4.32;;
43160;SDS011;40968;52.342;5.528;2022-07-29T11:37:21;12.07;;;4.30;;
43160;SDS011;40968;52.342;5.528;2022-07-29T11:42:48;11.00;;;4.15;;
43160;SDS011;40968;52.342;5.528;2022-07-29T11:45:16;11.32;;;3.50;;
43160;SDS011;40968;52.342;5.528;2022-07-29T11:47:48;17.58;;;4.05;;
43160;SDS011;40968;52.342;5.528;2022-07-29T11:50:26;10.93;;;3.65;;
43160;SDS011;40968;52.342;5.528;2022-07-29T11:52:55;9.13;;;3.65;;
43160;SDS011;40968;52.342;5.528;2022-07-29T11:55:22;10.82;;;3.08;;
43160;SDS011;40968;52.342;5.528;2022-07-29T11:57:52;10.00;;;3.75;;
43160;SDS011;40968;52.342;5.528;2022-07-29T12:00:21;11.57;;;3.70;;
43160;SDS011;40968;52.342;5.528;2022-07-29T12:02:49;13.07;;;3.80;;
43160;SDS011;40968;52.342;5.528;2022-07-29T12:05:16;12.15;;;3.78;;
43160;SDS011;40968;52.342;5.528;2022-07-29T12:07:43;9.40;;;3.83;;
43160;SDS011;40968;52.342;5.528;2022-07-29T12:10:10;12.50;;;3.75;;
43160;SDS011;40968;52.342;5.528;2022-07-29T12:12:37;17.05;;;4.35;;
43160;SDS011;40968;52.342;5.528;2022-07-29T12:15:13;10.93;;;4.07;;
43160;SDS011;40968;52.342;5.528;2022-07-29T12:17:42;17.33;;;4.22;;
43160;SDS011;40968;52.342;5.528;2022-07-29T12:20:09;11.52;;;4.00;;
43160;SDS011;40968;52.342;5.528;2022-07-29T12:22:38;17.77;;;4.25;;
43160;SDS011;40968;52.342;5.528;2022-07-29T12:25:07;11.23;;;3.13;;
43160;SDS011;40968;52.342;5.528;2022-07-29T12:27:35;8.00;;;3.70;;
43160;SDS011;40968;52.342;5.528;2022-07-29T12:30:04;11.13;;;3.53;;
43160;SDS011;40968;52.342;5.528;2022-07-29T12:32:35;11.33;;;3.87;;
43160;SDS011;40968;52.342;5.528;2022-07-29T12:35:04;14.30;;;4.45;;
43160;SDS011;40968;52.342;5.528;2022-07-29T12:37:32;11.05;;;3.63;;
43160;SDS011;40968;52.342;5.528;2022-07-29T12:40:00;10.50;;;3.80;;
43160;SDS011;40968;52.342;5.528;2022-07-29T12:42:27;16.60;;;4.00;;
43160;SDS011;40968;52.342;5.528;2022-07-29T12:44:54;11.80;;;4.22;;
43160;SDS011;40968;52.342;5.528;2022-07-29T12:47:20;8.45;;;3.83;;
43160;SDS011;40968;52.342;5.528;2022-07-29T12:49:49;9.55;;;3.75;;
43160;SDS011;40968;52.342;5.528;2022-07-29T12:52:23;9.40;;;3.92;;
43160;SDS011;40968;52.342;5.528;2022-07-29T12:54:51;16.02;;;4.55;;
43160;SDS011;40968;52.342;5.528;2022-07-29T12:57:17;11.48;;;4.80;;
43160;SDS011;40968;52.342;5.528;2022-07-29T12:59:44;12.27;;;4.75;;
43160;SDS011;40968;52.342;5.528;2022-07-29T13:02:20;16.40;;;4.05;;
43160;SDS011;40968;52.342;5.528;2022-07-29T13:04:55;10.00;;;4.07;;
43160;SDS011;40968;52.342;5.528;2022-07-29T13:07:24;15.32;;;4.55;;
43160;SDS011;40968;52.342;5.528;2022-07-29T13:09:52;12.80;;;5.03;;
43160;SDS011;40968;52.342;5.528;2022-07-29T13:12:19;12.38;;;4.75;;
43160;SDS011;40968;52.342;5.528;2022-07-29T13:14:46;12.68;;;4.38;;
43160;SDS011;40968;52.342;5.528;2022-07-29T13:17:14;12.00;;;4.57;;
43160;SDS011;40968;52.342;5.528;2022-07-29T13:19:43;11.73;;;4.25;;
43160;SDS011;40968;52.342;5.528;2022-07-29T13:22:13;15.13;;;4.40;;
43160;SDS011;40968;52.342;5.528;2022-07-29T13:24:47;13.13;;;4.75;;
43160;SDS011;40968;52.342;5.528;2022-07-29T13:27:15;13.98;;;4.97;;
43160;SDS011;40968;52.342;5.528;2022-07-29T13:29:42;16.90;;;4.80;;
43160;SDS011;40968;52.342;5.528;2022-07-29T13:32:08;17.58;;;5.25;;
43160;SDS011;40968;52.342;5.528;2022-07-29T13:34:35;12.00;;;4.63;;
43160;SDS011;40968;52.342;5.528;2022-07-29T13:37:02;11.82;;;4.35;;
43160;SDS011;40968;52.342;5.528;2022-07-29T13:39:30;9.95;;;4.15;;
43160;SDS011;40968;52.342;5.528;2022-07-29T13:41:56;14.88;;;4.80;;
43160;SDS011;40968;52.342;5.528;2022-07-29T13:44:23;11.52;;;4.97;;
43160;SDS011;40968;52.342;5.528;2022-07-29T13:46:50;12.40;;;3.75;;
43160;SDS011;40968;52.342;5.528;2022-07-29T13:49:16;12.05;;;4.53;;
43160;SDS011;40968;52.342;5.528;2022-07-29T13:51:43;12.80;;;4.32;;
43160;SDS011;40968;52.342;5.528;2022-07-29T13:54:10;8.38;;;4.28;;
43160;SDS011;40968;52.342;5.528;2022-07-29T13:56:37;11.35;;;4.28;;
43160;SDS011;40968;52.342;5.528;2022-07-29T13:59:04;11.70;;;4.65;;
43160;SDS011;40968;52.342;5.528;2022-07-29T14:01:30;13.10;;;3.90;;
43160;SDS011;40968;52.342;5.528;2022-07-29T14:03:57;11.13;;;3.85;;
43160;SDS011;40968;52.342;5.528;2022-07-29T14:06:24;13.77;;;3.55;;
43160;SDS011;40968;52.342;5.528;2022-07-29T14:08:50;11.30;;;3.85;;
43160;SDS011;40968;52.342;5.528;2022-07-29T14:11:17;12.75;;;4.10;;
43160;SDS011;40968;52.342;5.528;2022-07-29T14:13:45;10.73;;;4.60;;
43160;SDS011;40968;52.342;5.528;2022-07-29T14:16:11;8.80;;;3.70;;
43160;SDS011;40968;52.342;5.528;2022-07-29T14:18:38;15.40;;;3.30;;
43160;SDS011;40968;52.342;5.528;2022-07-29T14:21:04;15.95;;;4.00;;
43160;SDS011;40968;52.342;5.528;2022-07-29T14:23:31;10.25;;;3.60;;
43160;SDS011;40968;52.342;5.528;2022-07-29T14:26:00;14.25;;;3.75;;
43160;SDS011;40968;52.342;5.528;2022-07-29T14:28:27;13.57;;;3.63;;
43160;SDS011;40968;52.342;5.528;2022-07-29T14:30:54;13.75;;;3.95;;
43160;SDS011;40968;52.342;5.528;2022-07-29T14:33:21;11.70;;;4.30;;
43160;SDS011;40968;52.342;5.528;2022-07-29T14:35:48;12.57;;;3.50;;
43160;SDS011;40968;52.342;5.528;2022-07-29T14:38:14;7.60;;;3.40;;
43160;SDS011;40968;52.342;5.528;2022-07-29T14:40:41;9.85;;;3.47;;
43160;SDS011;40968;52.342;5.528;2022-07-29T14:43:08;12.68;;;4.35;;
43160;SDS011;40968;52.342;5.528;2022-07-29T14:45:34;11.05;;;3.10;;
43160;SDS011;40968;52.342;5.528;2022-07-29T14:48:02;8.35;;;3.30;;
43160;SDS011;40968;52.342;5.528;2022-07-29T14:50:29;14.68;;;4.47;;
43160;SDS011;40968;52.342;5.528;2022-07-29T14:52:56;17.20;;;3.67;;
43160;SDS011;40968;52.342;5.528;2022-07-29T14:55:25;13.93;;;3.70;;
43160;SDS011;40968;52.342;5.528;2022-07-29T14:57:51;10.00;;;3.47;;
43160;SDS011;40968;52.342;5.528;2022-07-29T15:00:18;8.93;;;3.10;;
43160;SDS011;40968;52.342;5.528;2022-07-29T15:02:45;9.30;;;3.45;;
43160;SDS011;40968;52.342;5.528;2022-07-29T15:05:13;11.05;;;3.50;;
43160;SDS011;40968;52.342;5.528;2022-07-29T15:07:42;8.13;;;3.58;;
43160;SDS011;40968;52.342;5.528;2022-07-29T15:10:09;13.88;;;4.20;;
43160;SDS011;40968;52.342;5.528;2022-07-29T15:12:36;10.50;;;3.05;;